TimeHST,TemperatureF,Dew PointF,Humidity,Sea Level PressureIn,VisibilityMPH,Wind Direction,Wind SpeedMPH,Gust SpeedMPH,PrecipitationIn,Events,Conditions,WindDirDegrees,DateUTC
12:53 AM,70.0,64.0,81,30.19,10.0,ESE,4.6,-,N/A,,Overcast,110,2011-12-29 10:53:00
1:53 AM,69.1,64.9,87,30.16,10.0,SW,4.6,-,N/A,,Overcast,230,2011-12-29 11:53:00
2:53 AM,68.0,64.9,90,30.14,10.0,SW,4.6,-,N/A,,Overcast,230,2011-12-29 12:53:00
3:53 AM,68.0,64.0,87,30.14,10.0,SW,3.5,-,N/A,,Overcast,230,2011-12-29 13:53:00
4:53 AM,66.9,64.0,90,30.14,10.0,Calm,Calm,-,N/A,,Mostly Cloudy,0,2011-12-29 14:53:00
5:53 AM,66.0,63.0,90,30.15,10.0,Calm,Calm,-,N/A,,Mostly Cloudy,0,2011-12-29 15:53:00
6:53 AM,66.0,62.1,87,30.17,10.0,WSW,3.5,-,N/A,,Mostly Cloudy,250,2011-12-29 16:53:00
7:53 AM,68.0,64.0,87,30.19,10.0,WSW,3.5,-,N/A,,Mostly Cloudy,240,2011-12-29 17:53:00
8:53 AM,73.9,62.1,66,30.19,10.0,WNW,5.8,-,N/A,,Partly Cloudy,300,2011-12-29 18:53:00
9:53 AM,73.0,61.0,66,30.20,10.0,ENE,8.1,-,N/A,,Mostly Cloudy,60,2011-12-29 19:53:00
10:53 AM,75.9,57.9,54,30.18,10.0,North,5.8,-,N/A,,Mostly Cloudy,10,2011-12-29 20:53:00
11:53 AM,75.9,60.1,58,30.16,10.0,NE,5.8,-,N/A,,Partly Cloudy,40,2011-12-29 21:53:00
12:53 PM,73.0,63.0,71,30.13,9.0,East,4.6,-,0.00,Rain,Light Rain,80,2011-12-29 22:53:00
1:53 PM,77.0,62.1,60,30.09,10.0,East,11.5,-,0.00,,Scattered Clouds,80,2011-12-29 23:53:00
2:53 PM,77.0,60.1,56,30.07,10.0,East,11.5,-,N/A,,Scattered Clouds,90,2011-12-30 00:53:00
3:53 PM,73.9,59.0,59,30.07,10.0,NE,8.1,-,N/A,,Clear,50,2011-12-30 01:53:00
4:53 PM,73.0,60.1,64,30.08,10.0,ENE,6.9,-,N/A,,Overcast,70,2011-12-30 02:53:00
5:53 PM,71.1,60.1,68,30.09,10.0,East,4.6,-,N/A,,Overcast,80,2011-12-30 03:53:00
6:53 PM,70.0,60.1,71,30.10,10.0,Calm,Calm,-,N/A,,Mostly Cloudy,0,2011-12-30 04:53:00
7:53 PM,66.0,61.0,84,30.11,10.0,SW,4.6,-,N/A,,Clear,230,2011-12-30 05:53:00
8:53 PM,66.0,61.0,84,30.11,10.0,WSW,5.8,-,N/A,,Partly Cloudy,250,2011-12-30 06:53:00
9:53 PM,66.9,62.1,84,30.11,10.0,SW,3.5,-,N/A,,Overcast,220,2011-12-30 07:53:00
10:53 PM,66.9,61.0,81,30.10,10.0,WSW,4.6,-,N/A,,Mostly Cloudy,240,2011-12-30 08:53:00
11:53 PM,66.0,60.1,81,30.09,10.0,WSW,4.6,-,0.00,Rain,Light Rain,250,2011-12-30 09:53:00